sensor_id;sensor_type;location;lat;lon;timestamp;P1;durP1;ratioP1;P2;durP2;ratioP2
16890;SDS011;8562;52.246;20.966;2022-09-03T00:00:35;5.03;;;2.40;;
16890;SDS011;8562;52.246;20.966;2022-09-03T00:03:07;4.70;;;2.40;;
16890;SDS011;8562;52.246;20.966;2022-09-03T00:08:04;1.80;;;1.60;;
16890;SDS011;8562;52.246;20.966;2022-09-03T00:10:44;2.37;;;1.63;;
16890;SDS011;8562;52.246;20.966;2022-09-03T00:13:15;3.73;;;1.67;;
16890;SDS011;8562;52.246;20.966;2022-09-03T00:15:42;5.73;;;2.30;;
16890;SDS011;8562;52.246;20.966;2022-09-03T00:18:13;3.30;;;1.93;;
16890;SDS011;8562;52.246;20.966;2022-09-03T00:20:41;8.37;;;2.27;;
16890;SDS011;8562;52.246;20.966;2022-09-03T00:23:18;4.80;;;2.30;;
16890;SDS011;8562;52.246;20.966;2022-09-03T00:25:57;4.07;;;2.30;;
16890;SDS011;8562;52.246;20.966;2022-09-03T00:28:26;3.80;;;1.67;;
16890;SDS011;8562;52.246;20.966;2022-09-03T00:30:58;2.10;;;1.87;;
16890;SDS011;8562;52.246;20.966;2022-09-03T00:33:28;3.40;;;1.93;;
16890;SDS011;8562;52.246;20.966;2022-09-03T00:38:24;4.60;;;1.83;;
16890;SDS011;8562;52.246;20.966;2022-09-03T00:41:07;2.77;;;1.80;;
16890;SDS011;8562;52.246;20.966;2022-09-03T00:48:50;2.07;;;1.87;;
16890;SDS011;8562;52.246;20.966;2022-09-03T00:51:20;2.10;;;1.50;;
16890;SDS011;8562;52.246;20.966;2022-09-03T00:56:29;2.30;;;1.87;;
16890;SDS011;8562;52.246;20.966;2022-09-03T01:01:34;2.43;;;1.80;;
16890;SDS011;8562;52.246;20.966;2022-09-03T01:04:13;4.00;;;2.20;;
16890;SDS011;8562;52.246;20.966;2022-09-03T01:06:49;3.93;;;1.70;;
16890;SDS011;8562;52.246;20.966;2022-09-03T01:14:21;3.67;;;1.90;;
16890;SDS011;8562;52.246;20.966;2022-09-03T01:16:52;3.03;;;1.97;;
16890;SDS011;8562;52.246;20.966;2022-09-03T01:25:10;2.23;;;1.50;;
16890;SDS011;8562;52.246;20.966;2022-09-03T01:30:05;2.07;;;1.87;;
16890;SDS011;8562;52.246;20.966;2022-09-03T01:43:57;1.87;;;1.60;;
16890;SDS011;8562;52.246;20.966;2022-09-03T01:46:27;1.93;;;1.40;;
16890;SDS011;8562;52.246;20.966;2022-09-03T01:49:09;3.20;;;1.30;;
16890;SDS011;8562;52.246;20.966;2022-09-03T01:51:38;2.27;;;1.77;;
16890;SDS011;8562;52.246;20.966;2022-09-03T01:54:11;2.63;;;2.00;;
16890;SDS011;8562;52.246;20.966;2022-09-03T02:01:46;5.07;;;1.50;;
16890;SDS011;8562;52.246;20.966;2022-09-03T02:04:21;2.43;;;1.83;;
16890;SDS011;8562;52.246;20.966;2022-09-03T02:06:52;3.60;;;1.90;;
16890;SDS011;8562;52.246;20.966;2022-09-03T02:09:18;2.80;;;1.47;;
16890;SDS011;8562;52.246;20.966;2022-09-03T02:11:49;3.37;;;1.70;;
16890;SDS011;8562;52.246;20.966;2022-09-03T02:14:18;3.47;;;1.57;;
16890;SDS011;8562;52.246;20.966;2022-09-03T02:16:44;3.43;;;1.53;;
16890;SDS011;8562;52.246;20.966;2022-09-03T02:19:12;1.97;;;1.30;;
16890;SDS011;8562;52.246;20.966;2022-09-03T02:21:39;2.13;;;1.70;;
16890;SDS011;8562;52.246;20.966;2022-09-03T02:24:08;1.63;;;1.50;;
16890;SDS011;8562;52.246;20.966;2022-09-03T02:26:35;4.07;;;2.13;;
16890;SDS011;8562;52.246;20.966;2022-09-03T02:29:01;2.10;;;0.97;;
16890;SDS011;8562;52.246;20.966;2022-09-03T02:31:28;2.30;;;1.40;;
16890;SDS011;8562;52.246;20.966;2022-09-03T02:33:55;1.83;;;1.50;;
16890;SDS011;8562;52.246;20.966;2022-09-03T02:36:26;7.47;;;1.60;;
16890;SDS011;8562;52.246;20.966;2022-09-03T02:38:53;2.33;;;1.70;;
16890;SDS011;8562;52.246;20.966;2022-09-03T02:41:19;3.13;;;1.93;;
16890;SDS011;8562;52.246;20.966;2022-09-03T02:43:54;3.53;;;1.87;;
16890;SDS011;8562;52.246;20.966;2022-09-03T02:46:24;1.73;;;1.40;;
16890;SDS011;8562;52.246;20.966;2022-09-03T02:48:52;3.63;;;1.60;;
16890;SDS011;8562;52.246;20.966;2022-09-03T02:51:19;6.20;;;1.60;;
16890;SDS011;8562;52.246;20.966;2022-09-03T02:53:45;1.57;;;1.33;;
16890;SDS011;8562;52.246;20.966;2022-09-03T02:56:11;3.67;;;1.63;;
16890;SDS011;8562;52.246;20.966;2022-09-03T02:58:37;2.77;;;1.80;;
16890;SDS011;8562;52.246;20.966;2022-09-03T03:01:04;2.07;;;1.80;;
16890;SDS011;8562;52.246;20.966;2022-09-03T03:03:30;5.47;;;1.83;;
16890;SDS011;8562;52.246;20.966;2022-09-03T03:05:57;4.67;;;1.53;;
16890;SDS011;8562;52.246;20.966;2022-09-03T03:08:24;2.13;;;1.70;;
16890;SDS011;8562;52.246;20.966;2022-09-03T03:10:52;2.47;;;1.70;;
16890;SDS011;8562;52.246;20.966;2022-09-03T03:13:20;0.90;;;0.90;;
16890;SDS011;8562;52.246;20.966;2022-09-03T03:15:46;1.77;;;1.67;;
16890;SDS011;8562;52.246;20.966;2022-09-03T03:18:13;3.97;;;1.90;;
16890;SDS011;8562;52.246;20.966;2022-09-03T03:20:41;3.10;;;2.07;;
16890;SDS011;8562;52.246;20.966;2022-09-03T03:23:08;1.60;;;1.50;;
16890;SDS011;8562;52.246;20.966;2022-09-03T03:25:37;5.27;;;1.70;;
16890;SDS011;8562;52.246;20.966;2022-09-03T03:28:04;2.60;;;1.40;;
16890;SDS011;8562;52.246;20.966;2022-09-03T03:30:31;2.93;;;1.87;;
16890;SDS011;8562;52.246;20.966;2022-09-03T03:32:57;1.87;;;1.63;;
16890;SDS011;8562;52.246;20.966;2022-09-03T03:35:23;1.70;;;1.53;;
16890;SDS011;8562;52.246;20.966;2022-09-03T03:37:49;3.80;;;1.80;;
16890;SDS011;8562;52.246;20.966;2022-09-03T03:40:15;3.83;;;2.00;;
16890;SDS011;8562;52.246;20.966;2022-09-03T03:42:42;2.33;;;1.97;;
16890;SDS011;8562;52.246;20.966;2022-09-03T03:45:08;3.67;;;1.57;;
16890;SDS011;8562;52.246;20.966;2022-09-03T03:47:35;2.30;;;1.80;;
16890;SDS011;8562;52.246;20.966;2022-09-03T03:50:01;2.43;;;2.00;;
16890;SDS011;8562;52.246;20.966;2022-09-03T03:52:28;2.57;;;1.80;;
16890;SDS011;8562;52.246;20.966;2022-09-03T03:54:54;4.47;;;2.13;;
16890;SDS011;8562;52.246;20.966;2022-09-03T03:57:21;2.47;;;1.57;;
16890;SDS011;8562;52.246;20.966;2022-09-03T03:59:47;2.57;;;1.70;;
16890;SDS011;8562;52.246;20.966;2022-09-03T04:02:14;3.33;;;1.90;;
16890;SDS011;8562;52.246;20.966;2022-09-03T04:04:40;10.43;;;2.17;;
16890;SDS011;8562;52.246;20.966;2022-09-03T04:07:07;2.87;;;2.10;;
16890;SDS011;8562;52.246;20.966;2022-09-03T04:09:33;2.30;;;1.37;;
16890;SDS011;8562;52.246;20.966;2022-09-03T04:11:59;2.57;;;1.80;;
16890;SDS011;8562;52.246;20.966;2022-09-03T04:14:26;2.43;;;1.83;;
16890;SDS011;8562;52.246;20.966;2022-09-03T04:16:52;3.53;;;1.97;;
16890;SDS011;8562;52.246;20.966;2022-09-03T04:19:19;3.50;;;1.93;;
16890;SDS011;8562;52.246;20.966;2022-09-03T04:21:45;2.37;;;2.17;;
16890;SDS011;8562;52.246;20.966;2022-09-03T04:24:11;2.13;;;1.57;;
16890;SDS011;8562;52.246;20.966;2022-09-03T04:26:37;7.93;;;2.63;;
16890;SDS011;8562;52.246;20.966;2022-09-03T04:29:06;4.03;;;2.20;;
16890;SDS011;8562;52.246;20.966;2022-09-03T04:31:32;2.37;;;1.30;;
16890;SDS011;8562;52.246;20.966;2022-09-03T04:33:59;1.27;;;1.17;;
16890;SDS011;8562;52.246;20.966;2022-09-03T04:36:26;2.50;;;1.07;;
16890;SDS011;8562;52.246;20.966;2022-09-03T04:38:53;3.33;;;2.30;;
16890;SDS011;8562;52.246;20.966;2022-09-03T04:41:20;5.33;;;2.00;;
16890;SDS011;8562;52.246;20.966;2022-09-03T04:43:49;1.60;;;1.23;;
16890;SDS011;8562;52.246;20.966;2022-09-03T04:46:15;2.07;;;1.50;;
16890;SDS011;8562;52.246;20.966;2022-09-03T04:48:42;1.57;;;1.47;;
16890;SDS011;8562;52.246;20.966;2022-09-03T04:51:09;2.00;;;1.70;;
16890;SDS011;8562;52.246;20.966;2022-09-03T04:53:37;6.10;;;1.70;;
16890;SDS011;8562;52.246;20.966;2022-09-03T04:56:14;3.50;;;2.30;;
16890;SDS011;8562;52.246;20.966;2022-09-03T04:58:41;7.07;;;1.60;;
16890;SDS011;8562;52.246;20.966;2022-09-03T05:01:12;3.73;;;1.27;;
16890;SDS011;8562;52.246;20.966;2022-09-03T05:03:40;2.17;;;1.87;;
16890;SDS011;8562;52.246;20.966;2022-09-03T05:06:06;2.97;;;1.60;;
16890;SDS011;8562;52.246;20.966;2022-09-03T05:08:33;4.83;;;1.80;;
16890;SDS011;8562;52.246;20.966;2022-09-03T05:11:01;3.07;;;1.23;;
16890;SDS011;8562;52.246;20.966;2022-09-03T05:13:28;2.77;;;1.30;;
16890;SDS011;8562;52.246;20.966;2022-09-03T05:15:58;2.23;;;1.70;;
16890;SDS011;8562;52.246;20.966;2022-09-03T05:18:24;2.10;;;1.50;;
16890;SDS011;8562;52.246;20.966;2022-09-03T05:21:00;3.13;;;1.73;;
16890;SDS011;8562;52.246;20.966;2022-09-03T05:23:27;1.43;;;1.30;;
16890;SDS011;8562;52.246;20.966;2022-09-03T05:25:58;1.60;;;1.50;;
16890;SDS011;8562;52.246;20.966;2022-09-03T05:28:25;3.07;;;1.90;;
16890;SDS011;8562;52.246;20.966;2022-09-03T05:30:59;1.70;;;1.43;;
16890;SDS011;8562;52.246;20.966;2022-09-03T05:33:25;2.23;;;1.73;;
16890;SDS011;8562;52.246;20.966;2022-09-03T05:35:52;4.67;;;1.67;;
16890;SDS011;8562;52.246;20.966;2022-09-03T05:38:19;4.20;;;1.43;;
16890;SDS011;8562;52.246;20.966;2022-09-03T05:40:45;2.13;;;1.40;;
16890;SDS011;8562;52.246;20.966;2022-09-03T05:43:11;2.10;;;1.50;;
16890;SDS011;8562;52.246;20.966;2022-09-03T05:45:37;1.90;;;1.70;;
16890;SDS011;8562;52.246;20.966;2022-09-03T05:48:04;3.47;;;1.77;;
16890;SDS011;8562;52.246;20.966;2022-09-03T05:50:30;1.77;;;1.43;;
16890;SDS011;8562;52.246;20.966;2022-09-03T05:52:57;5.47;;;1.97;;
16890;SDS011;8562;52.246;20.966;2022-09-03T05:55:23;3.77;;;2.03;;
16890;SDS011;8562;52.246;20.966;2022-09-03T05:57:52;2.97;;;1.40;;
16890;SDS011;8562;52.246;20.966;2022-09-03T06:00:19;3.37;;;1.50;;
16890;SDS011;8562;52.246;20.966;2022-09-03T06:02:49;9.03;;;1.77;;
16890;SDS011;8562;52.246;20.966;2022-09-03T06:05:16;7.30;;;1.50;;
16890;SDS011;8562;52.246;20.966;2022-09-03T06:07:43;1.70;;;1.57;;
16890;SDS011;8562;52.246;20.966;2022-09-03T06:10:09;9.07;;;1.87;;
16890;SDS011;8562;52.246;20.966;2022-09-03T06:12:36;5.67;;;1.20;;
16890;SDS011;8562;52.246;20.966;2022-09-03T06:15:03;4.37;;;1.57;;
16890;SDS011;8562;52.246;20.966;2022-09-03T06:17:30;3.33;;;1.50;;
16890;SDS011;8562;52.246;20.966;2022-09-03T06:19:56;1.93;;;1.10;;
16890;SDS011;8562;52.246;20.966;2022-09-03T06:22:22;3.77;;;1.57;;
16890;SDS011;8562;52.246;20.966;2022-09-03T06:24:49;3.27;;;1.80;;
16890;SDS011;8562;52.246;20.966;2022-09-03T06:27:16;3.00;;;1.70;;
16890;SDS011;8562;52.246;20.966;2022-09-03T06:29:42;7.30;;;1.93;;
16890;SDS011;8562;52.246;20.966;2022-09-03T06:32:08;2.97;;;1.43;;
16890;SDS011;8562;52.246;20.966;2022-09-03T06:34:34;5.93;;;1.80;;
16890;SDS011;8562;52.246;20.966;2022-09-03T06:37:01;2.57;;;1.60;;
16890;SDS011;8562;52.246;20.966;2022-09-03T06:39:27;2.73;;;1.33;;
16890;SDS011;8562;52.246;20.966;2022-09-03T06:41:53;4.43;;;1.87;;
16890;SDS011;8562;52.246;20.966;2022-09-03T06:44:26;1.60;;;1.50;;
16890;SDS011;8562;52.246;20.966;2022-09-03T06:46:52;3.03;;;1.50;;
16890;SDS011;8562;52.246;20.966;2022-09-03T06:49:18;2.43;;;1.30;;
16890;SDS011;8562;52.246;20.966;2022-09-03T06:51:44;3.03;;;2.20;;
16890;SDS011;8562;52.246;20.966;2022-09-03T06:54:11;7.70;;;2.47;;
16890;SDS011;8562;52.246;20.966;2022-09-03T06:56:39;5.97;;;2.67;;
16890;SDS011;8562;52.246;20.966;2022-09-03T06:59:12;5.00;;;3.93;;
16890;SDS011;8562;52.246;20.966;2022-09-03T07:01:39;5.33;;;4.40;;
16890;SDS011;8562;52.246;20.966;2022-09-03T07:04:06;4.50;;;2.97;;
16890;SDS011;8562;52.246;20.966;2022-09-03T07:06:34;5.23;;;2.87;;
16890;SDS011;8562;52.246;20.966;2022-09-03T07:09:01;6.17;;;2.70;;
16890;SDS011;8562;52.246;20.966;2022-09-03T07:11:28;8.60;;;2.97;;
16890;SDS011;8562;52.246;20.966;2022-09-03T07:13:56;5.17;;;2.97;;
16890;SDS011;8562;52.246;20.966;2022-09-03T07:16:24;3.53;;;2.87;;
16890;SDS011;8562;52.246;20.966;2022-09-03T07:18:51;5.97;;;2.40;;
16890;SDS011;8562;52.246;20.966;2022-09-03T07:21:18;5.27;;;2.20;;
16890;SDS011;8562;52.246;20.966;2022-09-03T07:23:44;3.80;;;2.03;;
16890;SDS011;8562;52.246;20.966;2022-09-03T07:26:12;1.67;;;1.10;;
16890;SDS011;8562;52.246;20.966;2022-09-03T07:28:39;2.77;;;1.70;;
16890;SDS011;8562;52.246;20.966;2022-09-03T07:31:09;4.47;;;1.63;;
16890;SDS011;8562;52.246;20.966;2022-09-03T07:33:36;1.60;;;1.17;;
16890;SDS011;8562;52.246;20.966;2022-09-03T07:36:03;2.50;;;1.77;;
16890;SDS011;8562;52.246;20.966;2022-09-03T07:38:31;3.17;;;1.70;;
16890;SDS011;8562;52.246;20.966;2022-09-03T07:40:57;6.13;;;1.47;;
16890;SDS011;8562;52.246;20.966;2022-09-03T07:43:25;4.50;;;1.30;;
16890;SDS011;8562;52.246;20.966;2022-09-03T07:45:51;7.10;;;1.47;;
16890;SDS011;8562;52.246;20.966;2022-09-03T07:48:19;2.00;;;1.50;;
16890;SDS011;8562;52.246;20.966;2022-09-03T07:50:45;2.70;;;1.53;;
16890;SDS011;8562;52.246;20.966;2022-09-03T07:53:14;1.93;;;1.43;;
16890;SDS011;8562;52.246;20.966;2022-09-03T07:55:41;2.00;;;1.70;;
16890;SDS011;8562;52.246;20.966;2022-09-03T07:58:08;2.47;;;1.30;;
16890;SDS011;8562;52.246;20.966;2022-09-03T08:00:36;4.50;;;1.30;;
16890;SDS011;8562;52.246;20.966;2022-09-03T08:03:03;2.50;;;1.20;;
16890;SDS011;8562;52.246;20.966;2022-09-03T08:05:32;2.43;;;1.90;;
16890;SDS011;8562;52.246;20.966;2022-09-03T08:08:01;2.33;;;1.30;;
16890;SDS011;8562;52.246;20.966;2022-09-03T08:10:27;1.10;;;1.00;;
16890;SDS011;8562;52.246;20.966;2022-09-03T08:12:56;1.27;;;1.17;;
16890;SDS011;8562;52.246;20.966;2022-09-03T08:15:22;1.67;;;1.10;;
16890;SDS011;8562;52.246;20.966;2022-09-03T08:17:48;1.90;;;1.17;;
16890;SDS011;8562;52.246;20.966;2022-09-03T08:20:15;0.90;;;0.77;;
16890;SDS011;8562;52.246;20.966;2022-09-03T08:22:41;4.50;;;1.10;;
16890;SDS011;8562;52.246;20.966;2022-09-03T08:25:08;3.03;;;0.90;;
16890;SDS011;8562;52.246;20.966;2022-09-03T08:27:34;1.40;;;0.90;;
16890;SDS011;8562;52.246;20.966;2022-09-03T08:30:00;2.23;;;1.00;;
16890;SDS011;8562;52.246;20.966;2022-09-03T08:32:28;0.57;;;0.57;;
16890;SDS011;8562;52.246;20.966;2022-09-03T08:34:54;3.13;;;1.30;;
16890;SDS011;8562;52.246;20.966;2022-09-03T08:37:20;2.60;;;1.50;;
16890;SDS011;8562;52.246;20.966;2022-09-03T08:39:53;1.77;;;1.20;;
16890;SDS011;8562;52.246;20.966;2022-09-03T08:45:06;1.87;;;1.33;;
16890;SDS011;8562;52.246;20.966;2022-09-03T08:52:56;3.63;;;1.40;;
16890;SDS011;8562;52.246;20.966;2022-09-03T09:00:58;1.93;;;1.20;;
16890;SDS011;8562;52.246;20.966;2022-09-03T09:08:37;2.27;;;1.30;;
16890;SDS011;8562;52.246;20.966;2022-09-03T09:11:10;2.20;;;0.97;;
16890;SDS011;8562;52.246;20.966;2022-09-03T09:14:16;1.70;;;1.00;;
16890;SDS011;8562;52.246;20.966;2022-09-03T09:16:39;1.70;;;1.23;;
16890;SDS011;8562;52.246;20.966;2022-09-03T09:19:12;3.30;;;1.67;;
16890;SDS011;8562;52.246;20.966;2022-09-03T09:21:44;3.83;;;1.00;;
16890;SDS011;8562;52.246;20.966;2022-09-03T09:24:16;1.37;;;1.23;;
16890;SDS011;8562;52.246;20.966;2022-09-03T09:26:46;3.70;;;1.10;;
16890;SDS011;8562;52.246;20.966;2022-09-03T09:29:12;0.77;;;0.70;;
16890;SDS011;8562;52.246;20.966;2022-09-03T09:31:40;1.73;;;1.20;;
16890;SDS011;8562;52.246;20.966;2022-09-03T09:34:09;2.60;;;1.10;;
16890;SDS011;8562;52.246;20.966;2022-09-03T09:36:46;2.97;;;1.13;;
16890;SDS011;8562;52.246;20.966;2022-09-03T09:39:13;1.97;;;1.20;;
16890;SDS011;8562;52.246;20.966;2022-09-03T09:41:40;1.37;;;1.10;;
16890;SDS011;8562;52.246;20.966;2022-09-03T09:44:07;0.60;;;0.60;;
16890;SDS011;8562;52.246;20.966;2022-09-03T09:46:35;0.70;;;0.70;;
16890;SDS011;8562;52.246;20.966;2022-09-03T09:49:07;0.60;;;0.50;;
16890;SDS011;8562;52.246;20.966;2022-09-03T09:51:34;1.67;;;0.73;;
16890;SDS011;8562;52.246;20.966;2022-09-03T09:54:10;1.00;;;0.70;;
16890;SDS011;8562;52.246;20.966;2022-09-03T09:56:37;3.27;;;1.17;;
16890;SDS011;8562;52.246;20.966;2022-09-03T09:59:13;0.80;;;0.73;;
16890;SDS011;8562;52.246;20.966;2022-09-03T10:01:40;2.20;;;0.90;;
16890;SDS011;8562;52.246;20.966;2022-09-03T10:04:08;1.53;;;0.80;;
16890;SDS011;8562;52.246;20.966;2022-09-03T10:06:34;0.60;;;0.60;;
16890;SDS011;8562;52.246;20.966;2022-09-03T10:09:30;2.10;;;1.20;;
16890;SDS011;8562;52.246;20.966;2022-09-03T10:14:32;1.00;;;0.90;;
16890;SDS011;8562;52.246;20.966;2022-09-03T10:17:00;1.07;;;0.50;;
16890;SDS011;8562;52.246;20.966;2022-09-03T10:19:33;0.80;;;0.80;;
16890;SDS011;8562;52.246;20.966;2022-09-03T10:22:03;0.90;;;0.90;;
16890;SDS011;8562;52.246;20.966;2022-09-03T10:24:52;1.27;;;0.77;;
16890;SDS011;8562;52.246;20.966;2022-09-03T10:27:20;1.43;;;0.80;;
16890;SDS011;8562;52.246;20.966;2022-09-03T10:29:47;0.77;;;0.73;;
16890;SDS011;8562;52.246;20.966;2022-09-03T10:34:57;2.40;;;1.33;;
16890;SDS011;8562;52.246;20.966;2022-09-03T10:37:31;0.63;;;0.63;;
16890;SDS011;8562;52.246;20.966;2022-09-03T10:47:34;1.37;;;1.00;;
16890;SDS011;8562;52.246;20.966;2022-09-03T10:52:38;1.80;;;1.00;;
16890;SDS011;8562;52.246;20.966;2022-09-03T10:57:57;2.63;;;0.70;;
16890;SDS011;8562;52.246;20.966;2022-09-03T11:00:28;0.70;;;0.63;;
16890;SDS011;8562;52.246;20.966;2022-09-03T11:05:27;1.30;;;0.60;;
16890;SDS011;8562;52.246;20.966;2022-09-03T11:08:02;1.60;;;0.77;;
16890;SDS011;8562;52.246;20.966;2022-09-03T11:10:31;0.70;;;0.53;;
16890;SDS011;8562;52.246;20.966;2022-09-03T11:15:25;1.87;;;0.80;;
16890;SDS011;8562;52.246;20.966;2022-09-03T11:20:25;0.60;;;0.60;;
16890;SDS011;8562;52.246;20.966;2022-09-03T11:22:59;1.90;;;0.60;;
16890;SDS011;8562;52.246;20.966;2022-09-03T11:25:29;0.60;;;0.60;;
16890;SDS011;8562;52.246;20.966;2022-09-03T11:33:18;1.50;;;1.40;;
16890;SDS011;8562;52.246;20.966;2022-09-03T11:35:45;0.73;;;0.70;;
16890;SDS011;8562;52.246;20.966;2022-09-03T11:43:29;0.83;;;0.60;;
16890;SDS011;8562;52.246;20.966;2022-09-03T11:51:01;1.57;;;0.63;;
16890;SDS011;8562;52.246;20.966;2022-09-03T11:53:35;0.60;;;0.60;;
16890;SDS011;8562;52.246;20.966;2022-09-03T11:58:36;1.00;;;0.53;;
16890;SDS011;8562;52.246;20.966;2022-09-03T12:01:05;1.00;;;0.70;;
16890;SDS011;8562;52.246;20.966;2022-09-03T12:03:56;1.10;;;0.50;;
16890;SDS011;8562;52.246;20.966;2022-09-03T12:11:59;0.63;;;0.57;;
16890;SDS011;8562;52.246;20.966;2022-09-03T12:14:39;0.40;;;0.40;;
16890;SDS011;8562;52.246;20.966;2022-09-03T12:17:31;0.67;;;0.60;;
16890;SDS011;8562;52.246;20.966;2022-09-03T12:19:58;1.60;;;0.60;;
16890;SDS011;8562;52.246;20.966;2022-09-03T12:22:26;0.90;;;0.33;;
16890;SDS011;8562;52.246;20.966;2022-09-03T12:24:52;0.83;;;0.60;;
16890;SDS011;8562;52.246;20.966;2022-09-03T12:27:25;1.17;;;0.63;;
16890;SDS011;8562;52.246;20.966;2022-09-03T12:32:20;0.40;;;0.40;;
16890;SDS011;8562;52.246;20.966;2022-09-03T12:34:47;0.50;;;0.50;;
16890;SDS011;8562;52.246;20.966;2022-09-03T12:37:21;2.17;;;0.50;;
16890;SDS011;8562;52.246;20.966;2022-09-03T12:39:54;1.60;;;1.07;;
16890;SDS011;8562;52.246;20.966;2022-09-03T12:42:28;1.70;;;0.60;;
16890;SDS011;8562;52.246;20.966;2022-09-03T12:44:55;2.57;;;0.60;;
16890;SDS011;8562;52.246;20.966;2022-09-03T12:47:29;0.40;;;0.40;;
16890;SDS011;8562;52.246;20.966;2022-09-03T12:50:04;0.60;;;0.40;;
16890;SDS011;8562;52.246;20.966;2022-09-03T12:52:38;0.30;;;0.30;;
16890;SDS011;8562;52.246;20.966;2022-09-03T12:57:52;0.53;;;0.50;;
16890;SDS011;8562;52.246;20.966;2022-09-03T13:00:20;0.77;;;0.70;;
16890;SDS011;8562;52.246;20.966;2022-09-03T13:05:13;1.00;;;0.53;;
16890;SDS011;8562;52.246;20.966;2022-09-03T13:07:43;0.83;;;0.70;;
16890;SDS011;8562;52.246;20.966;2022-09-03T13:10:15;1.03;;;0.87;;
16890;SDS011;8562;52.246;20.966;2022-09-03T13:12:46;0.50;;;0.50;;
16890;SDS011;8562;52.246;20.966;2022-09-03T13:15:17;0.53;;;0.50;;
16890;SDS011;8562;52.246;20.966;2022-09-03T13:17:47;3.07;;;0.70;;
16890;SDS011;8562;52.246;20.966;2022-09-03T13:20:20;1.33;;;0.77;;
16890;SDS011;8562;52.246;20.966;2022-09-03T13:28:27;1.23;;;0.80;;
16890;SDS011;8562;52.246;20.966;2022-09-03T13:31:00;1.47;;;0.80;;
16890;SDS011;8562;52.246;20.966;2022-09-03T13:33:32;3.03;;;0.77;;
16890;SDS011;8562;52.246;20.966;2022-09-03T13:36:09;1.00;;;0.50;;
16890;SDS011;8562;52.246;20.966;2022-09-03T13:43:44;0.90;;;0.60;;
16890;SDS011;8562;52.246;20.966;2022-09-03T13:48:49;0.57;;;0.50;;
16890;SDS011;8562;52.246;20.966;2022-09-03T13:51:46;2.60;;;0.60;;
16890;SDS011;8562;52.246;20.966;2022-09-03T13:54:27;0.70;;;0.70;;
16890;SDS011;8562;52.246;20.966;2022-09-03T13:57:00;0.80;;;0.40;;
16890;SDS011;8562;52.246;20.966;2022-09-03T14:00:13;2.30;;;1.00;;
16890;SDS011;8562;52.246;20.966;2022-09-03T14:09:53;0.70;;;0.60;;
16890;SDS011;8562;52.246;20.966;2022-09-03T14:12:28;0.80;;;0.70;;
16890;SDS011;8562;52.246;20.966;2022-09-03T14:15:07;0.57;;;0.50;;
16890;SDS011;8562;52.246;20.966;2022-09-03T14:17:56;2.10;;;0.83;;
16890;SDS011;8562;52.246;20.966;2022-09-03T14:20:22;1.03;;;0.70;;
16890;SDS011;8562;52.246;20.966;2022-09-03T14:25:19;0.60;;;0.60;;
16890;SDS011;8562;52.246;20.966;2022-09-03T14:27:45;0.80;;;0.57;;
16890;SDS011;8562;52.246;20.966;2022-09-03T14:35:23;1.13;;;0.63;;
16890;SDS011;8562;52.246;20.966;2022-09-03T14:40:41;1.27;;;0.90;;
16890;SDS011;8562;52.246;20.966;2022-09-03T14:58:57;1.30;;;0.53;;
16890;SDS011;8562;52.246;20.966;2022-09-03T15:01:27;0.53;;;0.53;;
16890;SDS011;8562;52.246;20.966;2022-09-03T15:06:46;1.10;;;0.63;;
16890;SDS011;8562;52.246;20.966;2022-09-03T15:11:47;0.87;;;0.70;;
16890;SDS011;8562;52.246;20.966;2022-09-03T15:16:55;1.70;;;0.53;;
16890;SDS011;8562;52.246;20.966;2022-09-03T15:24:55;0.80;;;0.80;;
16890;SDS011;8562;52.246;20.966;2022-09-03T15:32:41;0.77;;;0.50;;
16890;SDS011;8562;52.246;20.966;2022-09-03T15:37:54;2.63;;;0.70;;
16890;SDS011;8562;52.246;20.966;2022-09-03T15:42:55;1.03;;;0.77;;
16890;SDS011;8562;52.246;20.966;2022-09-03T15:47:54;0.90;;;0.60;;
16890;SDS011;8562;52.246;20.966;2022-09-03T15:50:34;1.40;;;0.70;;
16890;SDS011;8562;52.246;20.966;2022-09-03T15:56:00;1.13;;;0.63;;
16890;SDS011;8562;52.246;20.966;2022-09-03T15:58:34;1.20;;;1.10;;
16890;SDS011;8562;52.246;20.966;2022-09-03T16:11:36;1.13;;;0.70;;
16890;SDS011;8562;52.246;20.966;2022-09-03T16:14:05;1.50;;;0.70;;
16890;SDS011;8562;52.246;20.966;2022-09-03T16:19:14;1.23;;;0.50;;
16890;SDS011;8562;52.246;20.966;2022-09-03T16:21:46;0.63;;;0.63;;
16890;SDS011;8562;52.246;20.966;2022-09-03T16:24:21;1.23;;;0.80;;
16890;SDS011;8562;52.246;20.966;2022-09-03T16:27:08;1.07;;;0.80;;
16890;SDS011;8562;52.246;20.966;2022-09-03T16:29:35;2.03;;;0.57;;
16890;SDS011;8562;52.246;20.966;2022-09-03T16:48:03;0.67;;;0.67;;
16890;SDS011;8562;52.246;20.966;2022-09-03T16:50:47;3.13;;;1.20;;
16890;SDS011;8562;52.246;20.966;2022-09-03T16:55:56;1.63;;;0.97;;
16890;SDS011;8562;52.246;20.966;2022-09-03T17:03:31;0.83;;;0.63;;
16890;SDS011;8562;52.246;20.966;2022-09-03T17:11:21;3.07;;;1.07;;
16890;SDS011;8562;52.246;20.966;2022-09-03T17:24:28;2.67;;;1.20;;
16890;SDS011;8562;52.246;20.966;2022-09-03T17:32:10;1.90;;;1.30;;
16890;SDS011;8562;52.246;20.966;2022-09-03T17:42:59;2.57;;;1.23;;
16890;SDS011;8562;52.246;20.966;2022-09-03T17:45:35;3.20;;;1.40;;
16890;SDS011;8562;52.246;20.966;2022-09-03T17:48:12;2.50;;;1.17;;
16890;SDS011;8562;52.246;20.966;2022-09-03T17:50:45;1.87;;;1.47;;
16890;SDS011;8562;52.246;20.966;2022-09-03T17:53:21;3.70;;;1.23;;
16890;SDS011;8562;52.246;20.966;2022-09-03T17:56:01;2.80;;;1.87;;
16890;SDS011;8562;52.246;20.966;2022-09-03T17:58:42;2.20;;;1.10;;
16890;SDS011;8562;52.246;20.966;2022-09-03T18:08:55;1.47;;;1.13;;
16890;SDS011;8562;52.246;20.966;2022-09-03T18:16:34;1.30;;;1.00;;
16890;SDS011;8562;52.246;20.966;2022-09-03T18:21:53;2.17;;;1.33;;
16890;SDS011;8562;52.246;20.966;2022-09-03T18:24:42;1.67;;;1.33;;
16890;SDS011;8562;52.246;20.966;2022-09-03T18:30:25;3.37;;;1.10;;
16890;SDS011;8562;52.246;20.966;2022-09-03T18:33:10;2.73;;;1.60;;
16890;SDS011;8562;52.246;20.966;2022-09-03T18:35:55;2.40;;;1.10;;
16890;SDS011;8562;52.246;20.966;2022-09-03T18:38:41;2.00;;;1.47;;
16890;SDS011;8562;52.246;20.966;2022-09-03T18:47:40;4.23;;;1.63;;
16890;SDS011;8562;52.246;20.966;2022-09-03T18:53:27;2.23;;;1.30;;
16890;SDS011;8562;52.246;20.966;2022-09-03T19:02:01;1.83;;;1.13;;
16890;SDS011;8562;52.246;20.966;2022-09-03T19:05:05;1.83;;;1.47;;
16890;SDS011;8562;52.246;20.966;2022-09-03T19:11:20;2.03;;;1.60;;
16890;SDS011;8562;52.246;20.966;2022-09-03T19:14:11;2.00;;;1.47;;
16890;SDS011;8562;52.246;20.966;2022-09-03T19:17:02;1.73;;;1.40;;
16890;SDS011;8562;52.246;20.966;2022-09-03T19:23:05;2.03;;;1.43;;
16890;SDS011;8562;52.246;20.966;2022-09-03T19:25:50;2.07;;;1.73;;
16890;SDS011;8562;52.246;20.966;2022-09-03T19:28:39;4.00;;;1.53;;
16890;SDS011;8562;52.246;20.966;2022-09-03T19:51:56;2.10;;;1.40;;
16890;SDS011;8562;52.246;20.966;2022-09-03T19:54:46;3.20;;;1.53;;
16890;SDS011;8562;52.246;20.966;2022-09-03T19:57:33;2.00;;;1.67;;
16890;SDS011;8562;52.246;20.966;2022-09-03T20:00:18;2.17;;;1.47;;
16890;SDS011;8562;52.246;20.966;2022-09-03T20:03:02;2.07;;;1.47;;
16890;SDS011;8562;52.246;20.966;2022-09-03T20:05:48;2.40;;;1.47;;
16890;SDS011;8562;52.246;20.966;2022-09-03T20:08:34;5.77;;;2.03;;
16890;SDS011;8562;52.246;20.966;2022-09-03T20:11:19;2.83;;;1.57;;
16890;SDS011;8562;52.246;20.966;2022-09-03T20:13:46;1.77;;;1.57;;
16890;SDS011;8562;52.246;20.966;2022-09-03T20:19:16;1.90;;;1.50;;
16890;SDS011;8562;52.246;20.966;2022-09-03T20:27:25;3.70;;;1.70;;
16890;SDS011;8562;52.246;20.966;2022-09-03T20:30:02;2.57;;;1.57;;
16890;SDS011;8562;52.246;20.966;2022-09-03T20:35:07;3.47;;;1.80;;
16890;SDS011;8562;52.246;20.966;2022-09-03T20:37:40;5.23;;;1.80;;
16890;SDS011;8562;52.246;20.966;2022-09-03T20:40:20;3.13;;;1.87;;
16890;SDS011;8562;52.246;20.966;2022-09-03T20:42:52;4.03;;;2.27;;
16890;SDS011;8562;52.246;20.966;2022-09-03T20:45:24;1.97;;;1.83;;